Time;durP1;ratioP1;P1;durP2;ratioP2;P2;SDS_P1;SDS_P2;PMS_P1;PMS_P2;Temp;Humidity;BMP_temperature;BMP_pressure;BME280_temperature;BME280_humidity;BME280_pressure;Samples;Min_cycle;Max_cycle;Signal;HPM_P1;HPM_P2
2022/10/22 00:00:13;;;;;;;15.55;7.53;;;;;;;12.64;100.00;100604.03;5038946;28;20456;-80
2022/10/22 00:02:39;;;;;;;13.80;6.88;;;;;;;12.65;100.00;100607.63;5055236;28;20035;-80
2022/10/22 00:05:05;;;;;;;10.80;6.78;;;;;;;12.63;100.00;100612.41;5057453;28;20037;-80
2022/10/22 00:07:31;;;;;;;12.50;7.28;;;;;;;12.62;100.00;100610.66;5029198;28;20048;-80
2022/10/22 00:09:57;;;;;;;12.35;7.15;;;;;;;12.57;100.00;100602.84;5055104;28;20033;-80
2022/10/22 00:12:23;;;;;;;12.52;7.53;;;;;;;12.38;100.00;100570.72;5055099;28;20131;-81
2022/10/22 00:14:49;;;;;;;13.57;7.35;;;;;;;12.55;100.00;100588.38;5038461;28;20025;-79
2022/10/22 00:17:14;;;;;;;17.10;7.32;;;;;;;12.40;100.00;100567.84;5037701;28;20029;-80
2022/10/22 00:19:40;;;;;;;13.20;7.35;;;;;;;12.45;100.00;100576.53;5039052;28;20366;-82
2022/10/22 00:22:06;;;;;;;13.55;7.65;;;;;;;12.49;100.00;100575.22;5052225;28;20033;-80
2022/10/22 00:24:33;;;;;;;11.82;7.10;;;;;;;12.45;100.00;100580.13;5038215;28;20049;-80
2022/10/22 00:26:59;;;;;;;17.48;7.38;;;;;;;12.54;100.00;100577.53;5054059;28;20033;-80
2022/10/22 00:29:24;;;;;;;19.65;7.78;;;;;;;12.63;100.00;100601.44;5035034;28;20030;-80
2022/10/22 00:31:50;;;;;;;16.40;7.70;;;;;;;12.69;100.00;100593.50;5034101;28;20120;-80
2022/10/22 00:34:17;;;;;;;15.52;7.22;;;;;;;12.60;100.00;100587.97;5054682;28;20502;-80
2022/10/22 00:36:43;;;;;;;17.38;7.60;;;;;;;12.50;100.00;100590.69;5022382;28;20481;-80
2022/10/22 00:39:08;;;;;;;12.10;6.53;;;;;;;12.48;100.00;100587.22;5023310;28;20033;-80
2022/10/22 00:41:34;;;;;;;17.60;7.05;;;;;;;12.45;100.00;100585.63;5044936;28;20032;-80
2022/10/22 00:44:03;;;;;;;19.30;7.63;;;;;;;12.41;100.00;100586.03;5057788;28;20101;-80
2022/10/22 00:46:28;;;;;;;16.95;7.20;;;;;;;12.62;100.00;100616.16;5059069;28;20029;-79
2022/10/22 00:48:57;;;;;;;14.15;7.50;;;;;;;12.58;100.00;100615.56;5042045;28;20044;-80
2022/10/22 00:51:27;;;;;;;17.33;7.70;;;;;;;12.62;100.00;100611.53;5053856;28;20029;-80
2022/10/22 00:53:59;;;;;;;24.52;7.85;;;;;;;12.51;100.00;100603.44;5061203;28;20057;-80
2022/10/22 00:56:26;;;;;;;13.88;7.47;;;;;;;12.61;100.00;100600.69;5052179;28;20112;-79
2022/10/22 00:58:55;;;;;;;31.00;8.20;;;;;;;12.56;100.00;100595.63;5039292;28;20029;-80
2022/10/22 01:01:27;;;;;;;11.35;6.85;;;;;;;12.67;100.00;100603.75;5042707;28;20040;-80
2022/10/22 01:03:53;;;;;;;19.07;6.40;;;;;;;12.57;100.00;100593.75;5040260;28;20032;-81
2022/10/22 01:06:27;;;;;;;18.65;6.95;;;;;;;12.56;100.00;100592.00;5058234;28;20021;-80
2022/10/22 01:09:02;;;;;;;10.27;6.47;;;;;;;12.67;100.00;100605.63;5046093;28;20056;-80
2022/10/22 01:11:47;;;;;;;14.90;7.47;;;;;;;12.61;100.00;100600.69;5067829;28;20033;-80
2022/10/22 01:14:21;;;;;;;14.57;6.03;;;;;;;12.55;100.00;100606.75;5051958;28;20484;-79
2022/10/22 01:16:52;;;;;;;23.70;6.63;;;;;;;12.47;100.00;100607.44;5058936;28;20448;-79
2022/10/22 01:19:51;;;;;;;14.55;6.65;;;;;;;12.47;100.00;100611.06;5059570;28;20085;-79
2022/10/22 01:22:31;;;;;;;18.25;7.32;;;;;;;12.50;100.00;100615.41;5058467;28;20024;-79
2022/10/22 01:25:02;;;;;;;16.02;6.32;;;;;;;12.40;100.00;100612.63;5058899;28;20045;-79
2022/10/22 01:28:00;;;;;;;13.27;5.97;;;;;;;12.39;100.00;100601.78;5057438;28;20025;-79
2022/10/22 01:30:26;;;;;;;13.60;6.35;;;;;;;12.36;100.00;100597.44;5051863;28;20029;-79
2022/10/22 01:32:58;;;;;;;14.65;6.18;;;;;;;12.31;100.00;100600.63;5057764;28;20043;-79
2022/10/22 01:35:28;;;;;;;19.67;7.22;;;;;;;12.22;100.00;100595.94;5050492;28;20117;-80
2022/10/22 01:37:57;;;;;;;16.55;5.90;;;;;;;12.25;100.00;100595.69;5038832;28;20025;-80
2022/10/22 01:40:23;;;;;;;14.75;6.70;;;;;;;12.40;100.00;100584.31;5041712;28;20029;-80
2022/10/22 01:43:06;;;;;;;14.70;6.18;;;;;;;12.29;100.00;100588.03;5058615;28;20040;-80
2022/10/22 01:45:35;;;;;;;18.05;7.15;;;;;;;12.33;100.00;100586.75;5045182;28;20043;-80
2022/10/22 01:48:25;;;;;;;21.85;6.72;;;;;;;12.35;100.00;100594.81;5068116;28;20028;-80
2022/10/22 01:51:21;;;;;;;33.28;7.97;;;;;;;12.32;100.00;100587.75;5059042;28;20036;-80
2022/10/22 01:53:59;;;;;;;17.88;5.90;;;;;;;12.28;100.00;100589.03;5073834;28;20058;-80
2022/10/22 01:56:51;;;;;;;13.70;6.32;;;;;;;12.26;100.00;100594.66;5043233;28;20029;-80
2022/10/22 01:59:16;;;;;;;12.73;6.43;;;;;;;12.21;100.00;100596.09;5039828;28;20041;-80
2022/10/22 02:02:03;;;;;;;11.90;6.35;;;;;;;12.19;100.00;100592.63;5041175;28;20444;-80
2022/10/22 02:04:37;;;;;;;19.92;5.85;;;;;;;12.17;100.00;100584.53;5059331;28;20039;-80
2022/10/22 02:07:06;;;;;;;10.40;5.70;;;;;;;12.14;100.00;100588.41;5064979;28;20028;-80
2022/10/22 02:09:33;;;;;;;14.40;5.70;;;;;;;12.05;100.00;100591.09;5039309;28;20033;-79
2022/10/22 02:12:02;;;;;;;14.80;6.28;;;;;;;12.08;100.00;100588.94;5039623;28;20029;-80
2022/10/22 02:14:30;;;;;;;13.00;6.38;;;;;;;12.10;100.00;100578.72;5055906;28;20040;-79
2022/10/22 02:16:57;;;;;;;15.23;7.00;;;;;;;12.09;100.00;100579.72;5054906;28;20159;-80
2022/10/22 02:19:31;;;;;;;13.57;6.80;;;;;;;12.13;100.00;100586.69;5041027;28;20099;-80
2022/10/22 02:21:57;;;;;;;20.38;6.80;;;;;;;12.09;100.00;100576.13;5057602;28;20391;-80
2022/10/22 02:24:23;;;;;;;15.23;6.22;;;;;;;12.02;100.00;100586.78;5028152;28;20060;-81
2022/10/22 02:27:03;;;;;;;13.13;6.00;;;;;;;11.92;100.00;100591.31;5046956;28;20042;-80
2022/10/22 02:29:31;;;;;;;17.25;6.35;;;;;;;12.02;100.00;100594.13;5055351;28;20029;-80
2022/10/22 02:32:00;;;;;;;13.48;6.35;;;;;;;11.90;100.00;100596.06;5046103;28;20465;-80
2022/10/22 02:34:30;;;;;;;16.15;6.20;;;;;;;11.90;100.00;100596.06;5059313;28;20025;-80
2022/10/22 02:36:57;;;;;;;11.98;5.95;;;;;;;11.75;100.00;100592.81;5042005;28;20040;-79
2022/10/22 02:39:48;;;;;;;17.85;5.50;;;;;;;11.74;100.00;100577.34;5040975;28;20033;-81
2022/10/22 02:42:17;;;;;;;20.73;6.35;;;;;;;11.67;100.00;100587.13;5058107;28;20078;-81
2022/10/22 02:44:43;;;;;;;19.20;5.82;;;;;;;11.68;100.00;100580.66;5042209;28;20025;-80
2022/10/22 02:47:08;;;;;;;13.65;6.90;;;;;;;11.77;100.00;100601.75;5057168;28;20033;-82
2022/10/22 02:49:34;;;;;;;18.77;9.10;;;;;;;11.69;100.00;100591.50;5039715;28;20499;-81
2022/10/22 02:52:00;;;;;;;17.90;6.45;;;;;;;11.81;100.00;100597.75;5057215;28;20383;-80
2022/10/22 02:54:25;;;;;;;11.48;6.00;;;;;;;11.85;100.00;100596.47;5011173;28;20106;-80
2022/10/22 02:56:51;;;;;;;14.63;6.68;;;;;;;11.89;100.00;100592.44;5046172;28;20037;-81
2022/10/22 02:59:16;;;;;;;15.75;6.03;;;;;;;11.69;100.00;100594.22;5040745;28;20032;-80
2022/10/22 03:01:42;;;;;;;11.95;6.07;;;;;;;11.82;100.00;100587.63;5024124;28;20458;-80
2022/10/22 03:04:07;;;;;;;13.55;6.07;;;;;;;11.84;100.00;100588.38;5040082;28;20094;-81
2022/10/22 03:06:33;;;;;;;13.07;5.53;;;;;;;11.84;100.00;100594.75;5027772;28;20036;-80
2022/10/22 03:08:59;;;;;;;12.45;5.95;;;;;;;11.73;100.00;100589.34;5048546;28;20047;-80
2022/10/22 03:11:25;;;;;;;10.27;6.22;;;;;;;11.79;100.00;100591.53;5027999;28;20467;-80
2022/10/22 03:13:50;;;;;;;15.98;7.15;;;;;;;11.73;100.00;100603.06;5037510;28;20034;-80
2022/10/22 03:16:16;;;;;;;17.63;5.80;;;;;;;11.75;100.00;100610.13;5020067;28;20037;-80
2022/10/22 03:18:41;;;;;;;21.38;6.63;;;;;;;11.74;100.00;100594.69;5032436;28;20033;-80
2022/10/22 03:21:12;;;;;;;15.88;6.60;;;;;;;11.79;100.00;100610.75;5056237;28;20037;-80
2022/10/22 03:23:40;;;;;;;20.98;7.15;;;;;;;11.83;100.00;100608.59;5039856;28;20051;-81
2022/10/22 03:26:07;;;;;;;12.45;6.47;;;;;;;11.83;100.00;100622.31;5054308;28;20032;-81
2022/10/22 03:28:34;;;;;;;12.65;7.05;;;;;;;11.76;100.00;100617.34;5012064;28;20064;-80
2022/10/22 03:31:00;;;;;;;22.08;8.30;;;;;;;11.72;100.00;100610.41;5056786;28;20037;-80
2022/10/22 03:33:25;;;;;;;16.08;6.72;;;;;;;11.64;100.00;100615.72;5055036;28;20404;-80
2022/10/22 03:35:51;;;;;;;19.52;8.90;;;;;;;11.74;100.00;100630.34;5037818;28;20400;-81
2022/10/22 03:38:16;;;;;;;19.52;7.88;;;;;;;11.69;100.00;100629.88;5051134;28;20040;-81
2022/10/22 03:40:43;;;;;;;16.30;7.22;;;;;;;11.72;100.00;100635.09;5054469;28;20052;-80
2022/10/22 03:43:09;;;;;;;13.98;7.25;;;;;;;11.69;100.00;100638.13;5035622;28;20065;-81
2022/10/22 03:45:34;;;;;;;13.43;8.02;;;;;;;11.61;100.00;100634.28;5020170;28;20044;-81
2022/10/22 03:48:00;;;;;;;18.38;7.25;;;;;;;11.57;100.00;100636.44;5022811;28;20035;-81
2022/10/22 03:50:25;;;;;;;16.23;7.35;;;;;;;11.56;100.00;100638.31;5055179;28;20071;-80
2022/10/22 03:52:52;;;;;;;17.15;7.60;;;;;;;11.64;100.00;100637.66;5055107;28;20094;-80
2022/10/22 03:55:17;;;;;;;20.13;7.68;;;;;;;11.63;100.00;100637.78;5035495;28;20029;-81
2022/10/22 03:57:43;;;;;;;14.30;7.80;;;;;;;11.68;100.00;100649.22;5055181;28;20048;-80
2022/10/22 04:00:08;;;;;;;22.85;8.15;;;;;;;11.60;100.00;100647.13;5022662;28;20053;-80
2022/10/22 04:02:34;;;;;;;13.65;7.78;;;;;;;11.70;100.00;100638.97;5024559;28;20041;-81
2022/10/22 04:04:59;;;;;;;36.00;9.10;;;;;;;11.69;100.00;100659.16;5038237;28;20040;-80
2022/10/22 04:07:25;;;;;;;21.58;8.57;;;;;;;11.72;100.00;100647.94;5021722;28;20062;-80
2022/10/22 04:09:50;;;;;;;25.08;9.07;;;;;;;11.81;100.00;100662.72;5055387;28;20037;-79
2022/10/22 04:12:16;;;;;;;21.05;9.18;;;;;;;11.75;100.00;100661.38;5023708;28;20398;-80
2022/10/22 04:14:41;;;;;;;21.23;8.05;;;;;;;11.78;100.00;100658.38;5063026;28;20029;-80
2022/10/22 04:17:07;;;;;;;18.05;8.77;;;;;;;11.71;100.00;100658.03;5040191;28;20422;-81
2022/10/22 04:19:32;;;;;;;22.52;9.15;;;;;;;11.72;100.00;100656.16;5052058;28;20033;-81
2022/10/22 04:21:59;;;;;;;19.95;9.07;;;;;;;11.73;100.00;100666.13;5076937;28;20110;-81
2022/10/22 04:24:25;;;;;;;21.65;8.88;;;;;;;11.74;100.00;100660.50;5055895;28;20049;-80
2022/10/22 04:26:53;;;;;;;19.63;9.00;;;;;;;11.73;100.00;100663.38;5056430;28;20487;-80
2022/10/22 04:29:19;;;;;;;18.77;9.02;;;;;;;11.67;100.00;100664.78;5059691;28;20063;-80
2022/10/22 04:31:44;;;;;;;22.00;10.60;;;;;;;11.69;100.00;100664.66;5043062;28;20057;-80
2022/10/22 04:34:10;;;;;;;25.60;9.77;;;;;;;11.63;100.00;100677.03;5013355;28;20048;-80
2022/10/22 04:36:35;;;;;;;22.90;9.02;;;;;;;11.60;100.00;100677.28;5057773;28;20037;-80
2022/10/22 04:39:02;;;;;;;26.23;9.32;;;;;;;11.63;100.00;100667.94;5022402;28;20033;-80
2022/10/22 04:41:31;;;;;;;24.42;9.60;;;;;;;11.64;100.00;100672.41;5020614;28;20041;-80
2022/10/22 04:43:56;;;;;;;23.30;9.77;;;;;;;11.61;100.00;100662.59;5071426;28;20442;-80
2022/10/22 04:46:23;;;;;;;21.45;9.45;;;;;;;11.65;100.00;100674.16;5059862;28;20063;-81
2022/10/22 04:48:51;;;;;;;23.35;9.32;;;;;;;11.48;100.00;100659.16;5058628;28;20064;-81
2022/10/22 04:51:19;;;;;;;24.88;10.73;;;;;;;11.55;100.00;100660.38;5060686;28;20104;-82
2022/10/22 04:53:45;;;;;;;21.65;10.98;;;;;;;11.57;100.00;100670.19;5043971;28;20067;-81
2022/10/22 04:56:20;;;;;;;35.70;10.65;;;;;;;11.55;100.00;100674.09;5039852;28;20100;-81
2022/10/22 04:58:48;;;;;;;21.33;9.45;;;;;;;11.54;100.00;100675.97;5072212;28;20051;-80
2022/10/22 05:01:20;;;;;;;21.95;9.90;;;;;;;11.46;100.00;100667.53;5059435;28;20396;-79
2022/10/22 05:03:47;;;;;;;23.02;10.57;;;;;;;11.56;100.00;100686.81;5060199;28;20021;-79
2022/10/22 05:06:13;;;;;;;24.52;10.55;;;;;;;11.54;100.00;100681.44;5061862;28;20033;-79
2022/10/22 05:08:39;;;;;;;18.50;9.77;;;;;;;11.55;100.00;100702.38;5061069;28;20095;-79
2022/10/22 05:11:16;;;;;;;25.30;11.27;;;;;;;11.56;100.00;100695.03;5027461;28;20029;-79
2022/10/22 05:13:42;;;;;;;25.52;10.07;;;;;;;11.55;100.00;100696.88;5060673;28;20033;-78
2022/10/22 05:16:08;;;;;;;25.63;10.20;;;;;;;11.59;100.00;100692.88;5043685;28;20032;-78
2022/10/22 05:18:38;;;;;;;29.92;10.90;;;;;;;11.64;100.00;100692.50;5059327;28;20041;-80
2022/10/22 05:21:10;;;;;;;20.83;9.68;;;;;;;11.64;100.00;100697.97;5030227;28;20037;-80
2022/10/22 05:23:36;;;;;;;26.15;9.95;;;;;;;11.71;100.00;100688.22;5060138;28;20053;-79
2022/10/22 05:26:03;;;;;;;25.33;10.32;;;;;;;11.63;100.00;100688.00;5028189;28;20135;-80
2022/10/22 05:28:29;;;;;;;31.80;11.90;;;;;;;11.63;100.00;100692.63;5029669;28;20030;-79
2022/10/22 05:30:58;;;;;;;28.38;10.00;;;;;;;11.62;100.00;100690.88;5030507;28;20477;-79
2022/10/22 05:33:25;;;;;;;26.75;10.13;;;;;;;11.72;100.00;100686.31;5055439;28;20047;-79
2022/10/22 05:35:51;;;;;;;24.33;10.52;;;;;;;11.82;100.00;100690.00;5023893;28;20044;-80
2022/10/22 05:38:17;;;;;;;29.23;9.80;;;;;;;11.85;100.00;100686.13;5054758;28;20405;-79
2022/10/22 05:40:44;;;;;;;31.30;9.50;;;;;;;11.92;100.00;100699.22;5057229;28;20075;-80
2022/10/22 05:43:09;;;;;;;27.63;9.23;;;;;;;11.94;100.00;100694.47;5027116;28;20030;-79
2022/10/22 05:45:36;;;;;;;21.20;9.23;;;;;;;11.95;100.00;100692.56;5050576;28;20033;-80
2022/10/22 05:48:01;;;;;;;29.80;10.43;;;;;;;11.97;100.00;100692.44;5049626;28;20033;-79
2022/10/22 05:50:27;;;;;;;22.80;8.55;;;;;;;12.01;100.00;100704.91;5020881;28;20549;-78
2022/10/22 05:52:52;;;;;;;22.38;8.50;;;;;;;12.07;100.00;100705.22;5036288;28;20508;-80
2022/10/22 05:55:18;;;;;;;22.30;8.95;;;;;;;12.06;100.00;100708.13;5019552;28;20561;-79
2022/10/22 05:57:43;;;;;;;23.08;8.32;;;;;;;12.10;100.00;100704.06;5024291;28;20145;-80
2022/10/22 06:00:09;;;;;;;26.92;8.38;;;;;;;12.10;100.00;100709.56;5020373;28;20041;-79
2022/10/22 06:02:35;;;;;;;18.90;8.50;;;;;;;12.09;100.00;100714.19;5028971;28;20041;-80
2022/10/22 06:05:00;;;;;;;32.47;9.02;;;;;;;12.08;100.00;100715.19;5037983;28;20070;-79
2022/10/22 06:07:26;;;;;;;18.73;7.45;;;;;;;12.10;100.00;100723.28;5021297;28;20033;-79
2022/10/22 06:09:52;;;;;;;18.33;7.47;;;;;;;12.10;100.00;100724.19;5055458;28;20036;-82
2022/10/22 06:12:18;;;;;;;20.30;7.75;;;;;;;12.11;100.00;100725.03;5042703;28;20033;-81
2022/10/22 06:14:44;;;;;;;23.98;7.68;;;;;;;12.07;100.00;100726.31;5039865;28;20056;-80
2022/10/22 06:17:11;;;;;;;18.42;6.97;;;;;;;12.19;100.00;100736.22;5059395;28;20520;-80
2022/10/22 06:19:36;;;;;;;26.20;7.90;;;;;;;12.10;100.00;100726.91;5053586;28;20051;-78
2022/10/22 06:22:03;;;;;;;16.05;7.57;;;;;;;12.16;100.00;100743.84;5039462;28;20143;-78
2022/10/22 06:24:38;;;;;;;11.38;6.68;;;;;;;12.14;100.00;100744.84;5024301;28;20139;-78
2022/10/22 06:27:03;;;;;;;20.70;7.32;;;;;;;12.17;100.00;100748.31;5037045;28;20456;-79
2022/10/22 06:29:28;;;;;;;20.10;7.75;;;;;;;12.15;100.00;100745.75;5017693;28;20095;-79
2022/10/22 06:31:54;;;;;;;18.73;6.95;;;;;;;12.20;100.00;100748.94;5019629;28;20485;-79
2022/10/22 06:34:19;;;;;;;18.02;6.57;;;;;;;12.19;100.00;100760.91;5016216;28;20060;-80
2022/10/22 06:36:45;;;;;;;19.52;7.22;;;;;;;12.15;100.00;100764.94;5047073;28;20108;-79
2022/10/22 06:39:16;;;;;;;20.52;6.65;;;;;;;12.16;100.00;100765.81;5037129;28;20037;-80
2022/10/22 06:41:44;;;;;;;24.85;6.78;;;;;;;12.11;100.00;100766.22;5055444;28;20112;-79
2022/10/22 06:44:14;;;;;;;24.65;7.35;;;;;;;12.05;100.00;100767.63;5039952;28;20032;-79
2022/10/22 06:46:39;;;;;;;31.63;7.15;;;;;;;12.27;100.00;100782.22;5053726;28;20090;-81
2022/10/22 06:49:05;;;;;;;25.30;7.72;;;;;;;12.32;100.00;100786.28;5056632;28;20037;-79
2022/10/22 06:51:31;;;;;;;19.00;5.43;;;;;;;12.41;100.00;100787.38;5007157;28;20060;-81
2022/10/22 06:53:57;;;;;;;18.92;5.88;;;;;;;12.53;100.00;100796.41;5052447;28;20404;-80
2022/10/22 06:56:25;;;;;;;19.70;5.93;;;;;;;12.54;100.00;100781.63;5066618;28;20103;-79
2022/10/22 06:58:53;;;;;;;16.27;5.53;;;;;;;12.64;100.00;100801.81;5046801;28;20039;-81
2022/10/22 07:01:21;;;;;;;11.18;4.45;;;;;;;12.69;100.00;100813.25;5058859;28;20116;-80
2022/10/22 07:03:49;;;;;;;16.27;4.70;;;;;;;12.76;100.00;100807.22;5058132;28;20039;-78
2022/10/22 07:06:18;;;;;;;17.17;4.82;;;;;;;12.77;100.00;100801.56;5060111;28;22026;-79
2022/10/22 07:08:44;;;;;;;25.58;4.93;;;;;;;12.95;100.00;100811.91;5046768;28;20067;-78
2022/10/22 07:11:12;;;;;;;15.52;4.50;;;;;;;13.01;100.00;100809.47;5039436;28;20060;-79
2022/10/22 07:13:38;;;;;;;19.20;4.47;;;;;;;13.11;100.00;100819.66;5054996;28;20089;-79
2022/10/22 07:16:04;;;;;;;12.20;3.78;;;;;;;13.15;100.00;100815.59;5023114;28;20072;-79
2022/10/22 07:18:32;;;;;;;8.88;4.18;;;;;;;13.19;100.00;100828.06;5056925;28;20033;-80
2022/10/22 07:20:58;;;;;;;15.55;3.90;;;;;;;13.23;100.00;100830.41;5062029;28;20029;-77
2022/10/22 07:23:24;;;;;;;12.65;3.63;;;;;;;13.30;100.00;100829.84;5055705;28;20549;-79
2022/10/22 07:25:49;;;;;;;14.88;3.30;;;;;;;13.34;100.00;100836.84;5029922;28;20049;-79
2022/10/22 07:28:15;;;;;;;9.30;2.85;;;;;;;13.45;100.00;100844.13;5021911;28;20033;-80
2022/10/22 07:30:41;;;;;;;14.25;2.70;;;;;;;13.54;100.00;100840.50;5057526;28;20389;-80
2022/10/22 07:33:07;;;;;;;10.70;2.97;;;;;;;13.61;100.00;100847.19;5039812;28;20040;-80
2022/10/22 07:35:33;;;;;;;10.68;2.80;;;;;;;13.66;100.00;100850.41;5038606;28;20234;-79
2022/10/22 07:37:59;;;;;;;19.33;2.53;;;;;;;13.58;100.00;100836.47;5053325;28;20393;-78
2022/10/22 07:40:25;;;;;;;7.60;2.00;;;;;;;13.77;100.00;100854.88;5035153;28;20068;-79
2022/10/22 07:42:50;;;;;;;13.70;2.45;;;;;;;13.78;100.00;100854.75;5038320;28;20034;-79
2022/10/22 07:45:15;;;;;;;15.48;2.17;;;;;;;13.80;100.00;100862.84;5020333;28;20034;-79
2022/10/22 07:47:42;;;;;;;13.82;2.30;;;;;;;13.89;100.00;100861.16;5020096;28;20033;-79
2022/10/22 07:50:08;;;;;;;11.43;2.67;;;;;;;13.95;100.00;100866.06;5054851;28;20032;-79
2022/10/22 07:52:33;;;;;;;13.95;2.10;;;;;;;13.98;100.00;100869.41;5040375;28;20381;-79
2022/10/22 07:54:59;;;;;;;13.95;1.60;;;;;;;14.02;100.00;100874.63;5042729;28;20032;-79
2022/10/22 07:57:24;;;;;;;12.52;1.75;;;;;;;13.98;100.00;100869.41;5024504;28;20436;-79
2022/10/22 07:59:50;;;;;;;12.65;1.90;;;;;;;14.02;100.00;100881.00;5036127;28;20397;-79
2022/10/22 08:02:15;;;;;;;11.80;2.60;;;;;;;14.13;100.00;100880.00;5021650;28;20735;-79
2022/10/22 08:04:41;;;;;;;9.38;2.20;;;;;;;14.12;100.00;100881.88;5059546;28;20059;-79
2022/10/22 08:07:06;;;;;;;15.93;2.33;;;;;;;14.19;100.00;100889.56;5042275;28;20082;-79
2022/10/22 08:09:32;;;;;;;12.70;2.15;;;;;;;14.20;100.00;100894.94;5041801;28;20033;-79
2022/10/22 08:11:57;;;;;;;11.13;1.77;;;;;;;14.23;100.00;100904.78;5040196;28;20025;-78
2022/10/22 08:14:22;;;;;;;7.90;1.63;;;;;;;14.30;100.00;100906.81;5056194;28;20040;-78
2022/10/22 08:16:48;;;;;;;7.57;1.58;;;;;;;14.33;100.00;100902.88;5039978;28;20041;-78
2022/10/22 08:19:17;;;;;;;14.95;2.08;;;;;;;14.43;100.00;100901.03;5058185;28;20036;-78
2022/10/22 08:21:44;;;;;;;15.10;2.08;;;;;;;14.48;100.00;100906.97;5056006;28;20091;-79
2022/10/22 08:24:10;;;;;;;11.48;2.22;;;;;;;14.47;100.00;100918.13;5022363;28;20053;-78
2022/10/22 08:26:36;;;;;;;11.98;1.83;;;;;;;14.48;100.00;100922.63;5057672;28;20063;-79
2022/10/22 08:29:01;;;;;;;16.70;2.65;;;;;;;14.50;100.00;100918.69;5056729;28;20486;-78
2022/10/22 08:31:27;;;;;;;20.45;2.78;;;;;;;14.40;100.00;100928.00;5057492;28;20141;-78
2022/10/22 08:33:52;;;;;;;12.68;2.63;;;;;;;14.48;100.00;100920.75;5041628;28;20105;-78
2022/10/22 08:36:17;;;;;;;17.25;3.40;;;;;;;14.66;100.00;100909.03;5053339;28;20481;-78
2022/10/22 08:38:43;;;;;;;9.05;2.30;;;;;;;14.89;100.00;100932.47;5046802;28;20045;-78
2022/10/22 08:41:17;;;;;;;13.07;2.33;;;;;;;14.69;100.00;100933.50;5041109;28;20041;-79
2022/10/22 08:44:10;;;;;;;13.52;1.77;;;;;;;14.65;100.00;100934.84;5076576;28;20113;-77
2022/10/22 08:46:51;;;;;;;16.42;1.75;;;;;;;14.82;100.00;100936.84;5058064;28;20025;-79
2022/10/22 08:49:26;;;;;;;8.57;2.40;;;;;;;15.58;100.00;100941.41;5056041;28;20034;-78
2022/10/22 08:51:51;;;;;;;9.40;1.50;;;;;;;15.98;100.00;100944.88;5041047;28;20037;-78
2022/10/22 08:54:36;;;;;;;8.93;1.48;;;;;;;16.06;100.00;100955.16;5040515;28;20166;-77
2022/10/22 08:57:11;;;;;;;13.63;2.25;;;;;;;16.29;100.00;100956.44;5055160;28;20033;-78
2022/10/22 08:59:49;;;;;;;14.65;2.30;;;;;;;16.02;100.00;100962.00;5040784;28;20135;-78
2022/10/22 09:02:30;;;;;;;13.48;2.05;;;;;;;15.81;100.00;100971.41;5044188;28;20044;-78
2022/10/22 09:05:12;;;;;;;14.85;1.90;;;;;;;15.70;100.00;100960.53;5039911;28;20068;-78
2022/10/22 09:07:41;;;;;;;10.65;1.83;;;;;;;15.66;100.00;100964.59;5054009;28;20033;-78
2022/10/22 09:10:10;;;;;;;7.47;1.60;;;;;;;15.58;100.00;100980.06;5057901;28;20048;-78
2022/10/22 09:12:36;;;;;;;10.02;2.08;;;;;;;15.55;100.00;100974.81;5056394;28;20036;-78
2022/10/22 09:15:01;;;;;;;12.50;2.20;;;;;;;15.44;100.00;100977.78;5036680;28;20045;-78
2022/10/22 09:17:39;;;;;;;9.75;1.65;;;;;;;15.46;100.00;100980.38;5050215;28;20036;-78
2022/10/22 09:20:25;;;;;;;12.85;1.90;;;;;;;15.29;100.00;100980.13;5053637;28;20040;-78
2022/10/22 09:23:23;;;;;;;16.67;2.13;;;;;;;15.38;100.00;100989.41;5037852;28;20190;-79
2022/10/22 09:25:51;;;;;;;11.50;1.60;;;;;;;15.43;100.00;100998.97;5047087;28;20052;-78
2022/10/22 09:28:17;;;;;;;13.57;2.10;;;;;;;15.53;100.00;100993.44;5043349;28;20021;-77
2022/10/22 09:30:43;;;;;;;10.10;1.65;;;;;;;15.62;100.00;101000.78;5060747;28;20045;-79
2022/10/22 09:33:08;;;;;;;11.88;1.42;;;;;;;15.67;100.00;100996.72;5045202;28;20516;-78
2022/10/22 09:35:56;;;;;;;7.15;1.45;;;;;;;15.72;100.00;101008.19;5050417;28;20087;-78
2022/10/22 09:38:44;;;;;;;10.57;1.30;;;;;;;15.74;100.00;101009.78;5042502;28;20042;-78
2022/10/22 09:41:11;;;;;;;15.40;1.73;;;;;;;15.75;100.00;101010.63;5055793;28;20611;-79
2022/10/22 09:43:36;;;;;;;9.82;1.50;;;;;;;15.67;100.00;101007.75;5046245;28;20108;-77
2022/10/22 09:46:05;;;;;;;11.13;2.35;;;;;;;15.79;100.00;101003.84;5022541;28;20071;-77
2022/10/22 09:48:40;;;;;;;9.48;1.75;;;;;;;15.82;100.00;101002.66;5054218;28;20057;-78
2022/10/22 09:51:19;;;;;;;6.40;1.15;;;;;;;15.99;100.00;101008.22;5037530;28;20045;-78
2022/10/22 09:53:53;;;;;;;12.75;1.30;;;;;;;15.93;100.00;101022.66;5037787;28;20439;-78
2022/10/22 09:56:32;;;;;;;9.85;1.23;;;;;;;16.04;100.00;101015.19;5072041;28;20377;-78
2022/10/22 09:58:58;;;;;;;13.48;1.88;;;;;;;16.13;100.00;101028.97;5066115;28;20075;-78
2022/10/22 10:01:32;;;;;;;17.02;1.58;;;;;;;16.29;100.00;101030.19;5039267;28;20045;-78
2022/10/22 10:04:06;;;;;;;14.18;3.63;;;;;;;16.16;100.00;101025.88;5037772;28;20040;-78
2022/10/22 10:06:33;;;;;;;18.95;1.90;;;;;;;16.25;100.00;101037.91;5057373;28;20119;-79
2022/10/22 10:09:05;;;;;;;10.80;1.83;;;;;;;16.19;100.00;101043.19;5055468;28;20063;-79
2022/10/22 10:11:33;;;;;;;13.75;2.05;;;;;;;16.32;100.00;101044.53;5038029;28;20735;-80
2022/10/22 10:14:28;;;;;;;4.65;1.10;;;;;;;16.17;100.00;101046.09;5056113;28;20463;-79
2022/10/22 10:17:06;;;;;;;10.85;1.42;;;;;;;16.28;100.00;101048.66;5042992;28;20504;-79
2022/10/22 10:19:48;;;;;;;11.93;2.33;;;;;;;16.40;100.00;101051.19;5067520;28;20094;-79
2022/10/22 10:22:38;;;;;;;12.80;1.73;;;;;;;16.46;100.00;101051.47;5034376;28;20507;-79
2022/10/22 10:25:23;;;;;;;11.18;1.33;;;;;;;16.35;100.00;101060.81;5035346;28;20056;-78
2022/10/22 10:28:16;;;;;;;5.97;1.30;;;;;;;16.31;100.00;101067.66;5038460;28;20175;-78
2022/10/22 10:31:02;;;;;;;5.93;1.48;;;;;;;16.43;100.00;101072.97;5038558;28;20041;-79
2022/10/22 10:33:35;;;;;;;6.97;1.00;;;;;;;16.37;100.00;101073.63;5067069;28;20064;-79
2022/10/22 10:36:25;;;;;;;6.50;1.27;;;;;;;16.52;100.00;101072.06;5034926;28;20068;-79
2022/10/22 10:38:56;;;;;;;14.32;1.42;;;;;;;16.37;100.00;101073.63;5039883;28;20029;-79
2022/10/22 10:41:24;;;;;;;7.97;1.40;;;;;;;16.49;100.00;101077.91;5031829;28;20092;-79
2022/10/22 10:43:58;;;;;;;12.18;1.13;;;;;;;16.53;100.00;101088.50;5041124;28;20028;-79
2022/10/22 10:47:00;;;;;;;9.52;1.20;;;;;;;16.60;100.00;101085.97;5042769;28;20480;-79
2022/10/22 10:49:29;;;;;;;10.90;1.20;;;;;;;16.58;100.00;101088.03;5038878;28;20025;-79
2022/10/22 10:52:03;;;;;;;6.85;1.10;;;;;;;16.76;100.00;101089.94;5055362;28;20064;-78
2022/10/22 10:54:29;;;;;;;11.88;1.30;;;;;;;16.69;100.00;101093.34;5052643;28;20129;-78
2022/10/22 10:57:29;;;;;;;6.32;1.20;;;;;;;16.77;100.00;101092.56;5060408;28;20075;-78
2022/10/22 11:00:05;;;;;;;18.55;1.73;;;;;;;16.68;100.00;101094.38;5055741;28;20033;-78
2022/10/22 11:03:08;;;;;;;15.63;2.42;;;;;;;16.59;100.00;101092.53;5055909;28;20032;-79
2022/10/22 11:05:58;;;;;;;9.77;1.40;;;;;;;16.56;100.00;101090.09;5038683;28;20085;-78
2022/10/22 11:08:34;;;;;;;8.18;1.48;;;;;;;16.44;100.00;101091.31;5039948;28;20279;-79
2022/10/22 11:11:09;;;;;;;12.35;2.05;;;;;;;16.52;100.00;101089.50;5052858;28;20033;-79
2022/10/22 11:13:44;;;;;;;6.30;1.27;;;;;;;16.48;100.00;101087.25;5028137;28;20448;-79
2022/10/22 11:16:28;;;;;;;12.40;1.50;;;;;;;16.51;100.00;101086.91;5059913;28;20365;-77
2022/10/22 11:18:53;;;;;;;10.70;1.55;;;;;;;16.49;100.00;101088.97;5035524;28;20562;-78
2022/10/22 11:21:39;;;;;;;7.55;1.50;;;;;;;16.57;100.00;101093.72;5055527;28;20037;-78